KSEE/SEE METAR and TAF weather

Enter ICAO airport designator
Station Type Date Time Source
KSEE METAR 2021/02/27 09:35 UTC NOAA

KSEE 270935Z AUTO 31004KT 10SM CLR 05/M02 A2994 RMK AO2


Station Type Date Time Source
KSEE Decoded METAR 2021/02/27 09:35 UTC NOAA

San Diego/El Cajon, Gillespie Field Airport, CA, United States (KSEE) 32-49-34N 116-58-20W
Feb 27, 2021 - 04:35 AM EST / 2021.02.27 0935 UTC
Wind: from the NW (310 degrees) at 5 MPH (4 KT):0
Visibility: 10 mile(s):0
Sky conditions: clear
Temperature: 41 F (5 C)
Dew Point: 28 F (-2 C)
Relative Humidity: 60%
Pressure (altimeter): 29.94 in. Hg (1013 hPa)
ob: KSEE 270935Z AUTO 31004KT 10SM CLR 05/M02 A2994 RMK AO2
cycle: 9

Station Type Date Time Source
KSEE TAF UTC NOAA

Error!

Example: see airport list